createdAt,value
2017-10-26T00:03:03.392Z,14.54
2017-10-26T00:08:06.066Z,14.42
2017-10-26T00:13:08.012Z,14.49
2017-10-26T00:18:09.961Z,14.49
2017-10-26T00:23:11.950Z,14.46
2017-10-26T00:28:14.162Z,14.48
2017-10-26T00:33:16.291Z,14.45
2017-10-26T00:38:18.655Z,14.42
2017-10-26T00:43:20.995Z,14.34
2017-10-26T00:48:23.222Z,14.31
2017-10-26T00:53:25.388Z,14.25
2017-10-26T00:58:29.881Z,14.34
2017-10-26T01:03:32.205Z,14.31
2017-10-26T01:08:35.516Z,14.33
2017-10-26T01:13:37.998Z,14.36
2017-10-26T01:18:40.319Z,14.40
2017-10-26T01:23:42.900Z,14.41
2017-10-26T01:28:45.255Z,14.55
2017-10-26T01:33:48.556Z,14.59
2017-10-26T01:38:51.839Z,14.67
2017-10-26T01:43:55.479Z,14.80
2017-10-26T01:48:57.831Z,14.95
2017-10-26T01:54:02.822Z,15.03
2017-10-26T01:59:05.037Z,15.00
2017-10-26T02:04:07.160Z,14.96
2017-10-26T02:09:09.399Z,14.96
2017-10-26T02:14:11.633Z,14.89
2017-10-26T02:19:13.873Z,14.77
2017-10-26T02:24:16.112Z,14.81
2017-10-26T02:35:06.082Z,14.84
2017-10-26T02:40:08.920Z,14.86
2017-10-26T02:45:10.983Z,14.92
2017-10-26T02:50:13.877Z,14.90
2017-10-26T02:55:16.331Z,14.92
2017-10-26T03:00:18.436Z,14.98
2017-10-26T03:05:20.653Z,15.02
2017-10-26T03:10:22.773Z,15.02
2017-10-26T03:15:25.697Z,15.03
2017-10-26T03:20:28.018Z,15.03
2017-10-26T03:25:30.093Z,15.00
2017-10-26T03:30:32.278Z,15.00
2017-10-26T03:35:34.231Z,14.92
2017-10-26T03:40:36.128Z,14.95
2017-10-26T03:45:38.051Z,15.01
2017-10-26T03:50:39.979Z,15.09
2017-10-26T03:55:42.659Z,15.18
2017-10-26T04:00:44.627Z,15.17
2017-10-26T04:05:46.532Z,15.11
2017-10-26T04:10:48.416Z,15.12
2017-10-26T04:15:51.068Z,15.11
2017-10-26T04:20:53.071Z,15.07
2017-10-26T04:25:55.130Z,15.06
2017-10-26T04:30:57.250Z,15.05
2017-10-26T04:36:00.140Z,15.11
2017-10-26T04:41:02.145Z,15.14
2017-10-26T04:46:04.052Z,15.13
2017-10-26T04:51:05.980Z,15.13
2017-10-26T04:56:08.636Z,15.15
2017-10-26T05:01:10.542Z,15.16
2017-10-26T05:06:13.656Z,15.12
2017-10-26T05:11:15.980Z,15.18
2017-10-26T05:16:17.909Z,15.09
2017-10-26T05:21:19.856Z,15.11
2017-10-26T05:26:21.767Z,15.07
2017-10-26T05:31:23.757Z,15.13
2017-10-26T05:36:25.772Z,15.13
2017-10-26T05:41:27.735Z,15.21
2017-10-26T05:46:30.122Z,15.21
2017-10-26T05:51:32.069Z,15.12
2017-10-26T05:56:34.085Z,15.20
2017-10-26T06:01:36.089Z,15.13
2017-10-26T06:06:38.156Z,15.19
2017-10-26T06:11:40.180Z,15.18
2017-10-26T06:16:42.152Z,15.23
2017-10-26T06:21:44.055Z,15.22
2017-10-26T06:26:45.982Z,15.26
2017-10-26T06:31:48.204Z,15.21
2017-10-26T06:36:50.163Z,15.26
2017-10-26T06:41:52.092Z,15.33
2017-10-26T06:46:54.208Z,15.36
2017-10-26T06:51:56.139Z,15.37
2017-10-26T06:57:05.318Z,15.58
2017-10-26T07:02:13.337Z,15.47
2017-10-26T07:07:21.691Z,15.36
2017-10-26T07:12:28.890Z,15.44
2017-10-26T07:17:38.071Z,15.49
2017-10-26T07:22:44.859Z,15.65
2017-10-26T07:27:47.061Z,15.76
2017-10-26T07:32:51.163Z,15.86
2017-10-26T07:37:55.928Z,16.08
2017-10-26T07:42:57.982Z,16.25
2017-10-26T07:48:00.426Z,16.42
2017-10-26T07:53:04.254Z,16.45
2017-10-26T07:58:06.304Z,16.87
2017-10-26T08:03:08.379Z,16.84
2017-10-26T08:08:11.820Z,16.67
2017-10-26T08:13:17.347Z,16.83
2017-10-26T08:18:19.331Z,16.84
2017-10-26T08:23:21.359Z,17.08
2017-10-26T08:28:30.289Z,16.98
2017-10-26T08:33:32.406Z,16.93
2017-10-26T08:38:34.334Z,16.96
2017-10-26T08:43:38.473Z,17.03
2017-10-26T08:48:40.865Z,17.16
2017-10-26T08:53:43.670Z,17.28
2017-10-26T08:58:47.353Z,17.37
2017-10-26T09:03:52.793Z,17.46
2017-10-26T09:08:54.816Z,17.49
2017-10-26T09:13:57.672Z,17.47
2017-10-26T09:19:05.279Z,17.71
2017-10-26T09:24:08.088Z,17.72
2017-10-26T09:29:10.095Z,17.84
2017-10-26T09:34:12.113Z,17.97
2017-10-26T09:39:14.900Z,17.98
2017-10-26T09:44:17.736Z,17.94
2017-10-26T09:49:19.855Z,18.13
2017-10-26T09:54:21.868Z,18.10
2017-10-26T09:59:23.896Z,17.99
2017-10-26T10:04:26.642Z,17.97
2017-10-26T10:09:28.734Z,18.11
2017-10-26T10:14:30.781Z,18.17
2017-10-26T10:19:32.940Z,18.01
2017-10-26T10:24:35.726Z,17.99
2017-10-26T10:29:38.492Z,18.06
2017-10-26T10:34:40.508Z,17.98
2017-10-26T10:39:42.536Z,17.98
2017-10-26T10:44:44.599Z,18.33
2017-10-26T10:49:47.390Z,18.35
2017-10-26T10:54:49.419Z,18.23
2017-10-26T10:59:58.247Z,18.54
2017-10-26T11:05:03.841Z,18.60
2017-10-26T11:10:11.308Z,18.53
2017-10-26T11:15:15.358Z,18.48
2017-10-26T11:20:18.011Z,18.77
2017-10-26T11:25:20.028Z,18.92
2017-10-26T11:30:22.036Z,18.93
2017-10-26T11:35:24.068Z,18.82
2017-10-26T11:40:26.132Z,18.88
2017-10-26T11:45:28.157Z,18.95
2017-10-26T11:50:30.245Z,19.00
2017-10-26T11:55:32.271Z,18.77
2017-10-26T12:00:34.333Z,18.67
2017-10-26T12:05:37.113Z,18.70
2017-10-26T12:10:39.132Z,18.71
2017-10-26T12:15:41.177Z,18.47
2017-10-26T12:20:43.211Z,18.75
2017-10-26T12:25:45.233Z,19.13
2017-10-26T12:30:47.313Z,19.47
2017-10-26T12:35:49.416Z,19.67
2017-10-26T12:40:51.519Z,19.76
2017-10-26T12:45:53.589Z,19.81
2017-10-26T12:50:55.617Z,19.72
2017-10-26T12:55:58.386Z,19.59
2017-10-26T13:01:00.436Z,19.35
2017-10-26T13:06:03.249Z,19.21
2017-10-26T13:11:05.316Z,19.25
2017-10-26T13:16:07.396Z,19.23
2017-10-26T13:21:09.424Z,19.13
2017-10-26T13:26:11.455Z,19.22
2017-10-26T13:31:13.418Z,19.22
2017-10-26T13:36:15.364Z,19.50
2017-10-26T13:41:17.302Z,19.72
2017-10-26T13:46:20.024Z,19.61
2017-10-26T13:51:23.095Z,19.34
2017-10-26T13:56:25.127Z,19.28
2017-10-26T14:01:27.198Z,19.10
2017-10-26T14:06:29.163Z,19.24
2017-10-26T14:11:31.178Z,19.32
2017-10-26T14:16:33.865Z,19.27
2017-10-26T14:21:35.811Z,19.13
2017-10-26T14:26:38.468Z,19.20
2017-10-26T14:31:40.373Z,19.19
2017-10-26T14:36:42.567Z,18.96
2017-10-26T14:41:44.473Z,18.93
2017-10-26T14:46:46.428Z,18.85
2017-10-26T14:51:49.115Z,18.86
2017-10-26T14:56:51.002Z,18.85
2017-10-26T15:01:52.940Z,18.71
2017-10-26T15:06:55.103Z,18.70
2017-10-26T15:11:58.547Z,18.60
2017-10-26T15:17:01.595Z,18.50
2017-10-26T15:22:03.622Z,18.35
2017-10-26T15:27:05.575Z,18.28
2017-10-26T15:32:08.267Z,18.35
2017-10-26T15:37:10.205Z,18.27
2017-10-26T15:42:12.260Z,18.22
2017-10-26T15:47:14.227Z,18.20
2017-10-26T15:52:16.142Z,18.08
2017-10-26T15:57:18.048Z,17.94
2017-10-26T16:02:19.960Z,17.90
2017-10-26T16:07:22.039Z,17.93
2017-10-26T16:12:25.401Z,17.89
2017-10-26T16:17:27.411Z,17.86
2017-10-26T16:22:29.365Z,17.85
2017-10-26T16:27:32.049Z,17.82
2017-10-26T16:32:33.975Z,17.64
2017-10-26T16:37:36.647Z,17.55
2017-10-26T16:42:38.678Z,17.49
2017-10-26T16:47:40.670Z,17.45
2017-10-26T16:52:42.634Z,17.50
2017-10-26T16:57:45.359Z,17.41
2017-10-26T17:02:47.299Z,17.51
2017-10-26T17:07:49.276Z,17.55
2017-10-26T17:12:51.258Z,17.55
2017-10-26T17:17:53.963Z,17.36
2017-10-26T17:22:55.973Z,17.21
2017-10-26T17:27:58.842Z,17.20
2017-10-26T17:33:01.905Z,17.14
2017-10-26T17:38:03.923Z,17.19
2017-10-26T17:43:11.621Z,17.20
2017-10-26T17:48:13.924Z,17.14
2017-10-26T17:53:21.988Z,17.15
2017-10-26T17:58:27.200Z,17.08
2017-10-26T18:03:29.693Z,17.06
2017-10-26T18:08:33.712Z,17.04
2017-10-26T18:13:37.377Z,17.03
2017-10-26T18:18:39.333Z,17.03
2017-10-26T18:23:41.320Z,16.97
2017-10-26T18:28:47.369Z,17.00
2017-10-26T18:33:49.335Z,16.94
2017-10-26T18:38:51.418Z,17.06
2017-10-26T18:43:54.301Z,17.02
2017-10-26T18:48:56.521Z,16.87
2017-10-26T18:53:58.492Z,16.84
2017-10-26T18:59:01.410Z,16.86
2017-10-26T19:04:03.619Z,16.73
2017-10-26T19:09:05.533Z,16.93
2017-10-26T19:14:08.205Z,16.91
2017-10-26T19:19:10.151Z,16.90
2017-10-26T19:24:12.239Z,16.87
2017-10-26T19:29:14.295Z,16.93
2017-10-26T19:34:16.275Z,16.99
2017-10-26T19:39:18.230Z,16.79
2017-10-26T19:44:24.305Z,16.55
2017-10-26T19:49:26.533Z,16.37
2017-10-26T19:54:29.338Z,16.46
2017-10-26T19:59:32.090Z,16.40
2017-10-26T20:04:34.800Z,16.37
2017-10-26T20:09:37.536Z,16.07
2017-10-26T20:14:39.509Z,15.99
2017-10-26T20:19:41.448Z,15.81
2017-10-26T20:24:43.361Z,15.85
2017-10-26T20:29:45.289Z,15.93
2017-10-26T20:34:47.984Z,15.85
2017-10-26T20:39:49.971Z,15.60
2017-10-26T20:44:51.906Z,15.86
2017-10-26T20:50:00.054Z,15.85
2017-10-26T20:55:07.894Z,15.92
2017-10-26T21:00:15.910Z,15.79
2017-10-26T21:05:23.806Z,15.83
2017-10-26T21:10:32.577Z,15.75
2017-10-26T21:15:35.234Z,15.71
2017-10-26T21:20:37.151Z,15.79
2017-10-26T21:25:39.098Z,15.78
2017-10-26T21:30:41.055Z,15.78
2017-10-26T21:35:42.955Z,15.83
2017-10-26T21:40:44.954Z,15.89
2017-10-26T21:45:46.953Z,15.79
2017-10-26T21:50:48.899Z,15.72
2017-10-26T21:55:50.818Z,15.67
2017-10-26T22:00:52.760Z,15.69
2017-10-26T22:05:54.725Z,15.58
2017-10-26T22:10:56.669Z,15.54
2017-10-26T22:15:58.666Z,15.53
2017-10-26T22:21:00.596Z,15.53
2017-10-26T22:26:02.562Z,15.53
2017-10-26T22:31:04.510Z,15.58
2017-10-26T22:36:06.448Z,15.58
2017-10-26T22:41:08.420Z,15.53
2017-10-26T22:46:10.347Z,15.43
2017-10-26T22:51:12.304Z,15.34
2017-10-26T22:56:14.256Z,15.33
2017-10-26T23:01:16.225Z,15.27
2017-10-26T23:06:18.141Z,15.27
2017-10-26T23:11:20.102Z,15.19
2017-10-26T23:16:22.083Z,15.22
2017-10-26T23:21:24.092Z,15.21
2017-10-26T23:26:26.792Z,15.14
2017-10-26T23:31:28.674Z,15.29
2017-10-26T23:36:30.600Z,15.27
2017-10-26T23:41:32.534Z,15.30
2017-10-26T23:46:34.476Z,15.27
2017-10-26T23:51:36.474Z,15.26
2017-10-26T23:56:38.410Z,15.26
